sensor_id;sensor_type;location;lat;lon;timestamp;temperature;humidity
43143;DHT22;28750;59.842;17.584;2023-03-14T00:01:09;6.10;99.90
43143;DHT22;28750;59.842;17.584;2023-03-14T00:03:36;6.00;99.90
43143;DHT22;28750;59.842;17.584;2023-03-14T00:06:04;6.10;99.90
43143;DHT22;28750;59.842;17.584;2023-03-14T00:08:31;6.10;99.90
43143;DHT22;28750;59.842;17.584;2023-03-14T00:11:13;6.10;99.90
43143;DHT22;28750;59.842;17.584;2023-03-14T00:13:41;6.10;99.90
43143;DHT22;28750;59.842;17.584;2023-03-14T00:16:11;6.10;99.90
43143;DHT22;28750;59.842;17.584;2023-03-14T00:18:39;6.20;99.90
43143;DHT22;28750;59.842;17.584;2023-03-14T00:21:08;6.30;99.90
43143;DHT22;28750;59.842;17.584;2023-03-14T00:23:37;6.20;99.90
43143;DHT22;28750;59.842;17.584;2023-03-14T00:26:14;6.30;99.90
43143;DHT22;28750;59.842;17.584;2023-03-14T00:28:42;6.10;99.90
43143;DHT22;28750;59.842;17.584;2023-03-14T00:31:12;6.20;99.90
43143;DHT22;28750;59.842;17.584;2023-03-14T00:33:39;6.30;99.90
43143;DHT22;28750;59.842;17.584;2023-03-14T00:36:09;6.30;99.90
43143;DHT22;28750;59.842;17.584;2023-03-14T00:38:37;6.20;99.90
43143;DHT22;28750;59.842;17.584;2023-03-14T00:41:06;6.20;99.90
43143;DHT22;28750;59.842;17.584;2023-03-14T00:43:34;6.30;99.90
43143;DHT22;28750;59.842;17.584;2023-03-14T00:46:01;6.20;99.90
43143;DHT22;28750;59.842;17.584;2023-03-14T00:48:28;6.10;99.90
43143;DHT22;28750;59.842;17.584;2023-03-14T00:50:55;6.10;99.90
43143;DHT22;28750;59.842;17.584;2023-03-14T00:53:22;6.10;99.90
43143;DHT22;28750;59.842;17.584;2023-03-14T00:55:49;6.10;99.90
43143;DHT22;28750;59.842;17.584;2023-03-14T00:58:17;6.00;99.90
43143;DHT22;28750;59.842;17.584;2023-03-14T01:00:45;6.10;99.90
43143;DHT22;28750;59.842;17.584;2023-03-14T01:03:14;6.20;99.90
43143;DHT22;28750;59.842;17.584;2023-03-14T01:05:41;6.20;99.90
43143;DHT22;28750;59.842;17.584;2023-03-14T01:08:08;6.20;99.90
43143;DHT22;28750;59.842;17.584;2023-03-14T01:10:41;6.30;99.90
43143;DHT22;28750;59.842;17.584;2023-03-14T01:13:09;6.20;99.90
43143;DHT22;28750;59.842;17.584;2023-03-14T01:15:37;6.20;99.90
43143;DHT22;28750;59.842;17.584;2023-03-14T01:18:04;6.30;99.90
43143;DHT22;28750;59.842;17.584;2023-03-14T01:20:31;6.40;99.90
43143;DHT22;28750;59.842;17.584;2023-03-14T01:22:58;6.50;99.90
43143;DHT22;28750;59.842;17.584;2023-03-14T01:25:25;6.40;99.90
43143;DHT22;28750;59.842;17.584;2023-03-14T01:27:52;6.50;99.90
43143;DHT22;28750;59.842;17.584;2023-03-14T01:30:19;6.40;99.90
43143;DHT22;28750;59.842;17.584;2023-03-14T01:32:46;6.30;99.90
43143;DHT22;28750;59.842;17.584;2023-03-14T01:35:13;6.40;99.90
43143;DHT22;28750;59.842;17.584;2023-03-14T01:37:40;6.40;99.90
43143;DHT22;28750;59.842;17.584;2023-03-14T01:40:09;6.70;99.90
43143;DHT22;28750;59.842;17.584;2023-03-14T01:42:36;6.60;99.90
43143;DHT22;28750;59.842;17.584;2023-03-14T01:45:03;6.60;99.90
43143;DHT22;28750;59.842;17.584;2023-03-14T01:47:30;6.50;99.90
43143;DHT22;28750;59.842;17.584;2023-03-14T01:50:05;6.40;99.90
43143;DHT22;28750;59.842;17.584;2023-03-14T01:52:46;6.60;99.90
43143;DHT22;28750;59.842;17.584;2023-03-14T01:55:17;6.50;99.90
43143;DHT22;28750;59.842;17.584;2023-03-14T01:57:52;6.60;99.90
43143;DHT22;28750;59.842;17.584;2023-03-14T02:00:22;6.60;99.90
43143;DHT22;28750;59.842;17.584;2023-03-14T02:02:54;6.50;99.90
43143;DHT22;28750;59.842;17.584;2023-03-14T02:05:32;6.50;99.90
43143;DHT22;28750;59.842;17.584;2023-03-14T02:08:01;6.50;99.90
43143;DHT22;28750;59.842;17.584;2023-03-14T02:10:35;6.50;99.90
43143;DHT22;28750;59.842;17.584;2023-03-14T02:13:05;6.50;99.90
43143;DHT22;28750;59.842;17.584;2023-03-14T02:15:33;6.50;99.90
43143;DHT22;28750;59.842;17.584;2023-03-14T02:18:02;6.50;99.90
43143;DHT22;28750;59.842;17.584;2023-03-14T02:23:18;6.60;99.90
43143;DHT22;28750;59.842;17.584;2023-03-14T02:25:57;6.50;99.90
43143;DHT22;28750;59.842;17.584;2023-03-14T02:28:28;6.60;99.90
43143;DHT22;28750;59.842;17.584;2023-03-14T02:30:55;6.40;99.90
43143;DHT22;28750;59.842;17.584;2023-03-14T02:33:22;6.60;99.90
43143;DHT22;28750;59.842;17.584;2023-03-14T02:41:29;6.60;99.90
43143;DHT22;28750;59.842;17.584;2023-03-14T02:43:56;6.60;99.90
43143;DHT22;28750;59.842;17.584;2023-03-14T02:46:23;6.60;99.90
43143;DHT22;28750;59.842;17.584;2023-03-14T02:48:54;6.60;99.90
43143;DHT22;28750;59.842;17.584;2023-03-14T02:51:24;6.70;99.90
43143;DHT22;28750;59.842;17.584;2023-03-14T02:53:52;6.50;99.90
43143;DHT22;28750;59.842;17.584;2023-03-14T02:56:19;6.60;99.90
43143;DHT22;28750;59.842;17.584;2023-03-14T02:58:46;6.70;99.90
43143;DHT22;28750;59.842;17.584;2023-03-14T03:01:13;6.60;99.90
43143;DHT22;28750;59.842;17.584;2023-03-14T03:03:40;6.60;99.90
43143;DHT22;28750;59.842;17.584;2023-03-14T03:06:07;6.60;99.90
43143;DHT22;28750;59.842;17.584;2023-03-14T03:08:34;6.50;99.90
43143;DHT22;28750;59.842;17.584;2023-03-14T03:11:02;6.40;99.90
43143;DHT22;28750;59.842;17.584;2023-03-14T03:13:29;6.50;99.90
43143;DHT22;28750;59.842;17.584;2023-03-14T03:15:56;6.50;99.90
43143;DHT22;28750;59.842;17.584;2023-03-14T03:18:23;6.40;99.90
43143;DHT22;28750;59.842;17.584;2023-03-14T03:20:50;6.30;99.90
43143;DHT22;28750;59.842;17.584;2023-03-14T03:23:17;6.30;99.90
43143;DHT22;28750;59.842;17.584;2023-03-14T03:25:50;6.30;99.90
43143;DHT22;28750;59.842;17.584;2023-03-14T03:28:18;6.20;99.90
43143;DHT22;28750;59.842;17.584;2023-03-14T03:30:45;6.20;99.90
43143;DHT22;28750;59.842;17.584;2023-03-14T03:33:13;6.30;99.90
43143;DHT22;28750;59.842;17.584;2023-03-14T03:35:48;6.20;99.90
43143;DHT22;28750;59.842;17.584;2023-03-14T03:38:16;6.20;99.90
43143;DHT22;28750;59.842;17.584;2023-03-14T03:40:45;6.20;99.90
43143;DHT22;28750;59.842;17.584;2023-03-14T03:43:12;6.20;99.90
43143;DHT22;28750;59.842;17.584;2023-03-14T03:45:39;6.30;99.90
43143;DHT22;28750;59.842;17.584;2023-03-14T03:48:06;6.10;99.90
43143;DHT22;28750;59.842;17.584;2023-03-14T03:50:33;6.00;99.90
43143;DHT22;28750;59.842;17.584;2023-03-14T03:53:00;6.00;99.90
43143;DHT22;28750;59.842;17.584;2023-03-14T03:55:27;6.10;99.90
43143;DHT22;28750;59.842;17.584;2023-03-14T03:57:54;6.10;99.90
43143;DHT22;28750;59.842;17.584;2023-03-14T04:00:21;6.00;99.90
43143;DHT22;28750;59.842;17.584;2023-03-14T04:02:48;6.00;99.90
43143;DHT22;28750;59.842;17.584;2023-03-14T04:05:15;6.00;99.90
43143;DHT22;28750;59.842;17.584;2023-03-14T04:07:42;6.00;99.90
43143;DHT22;28750;59.842;17.584;2023-03-14T04:10:09;5.90;99.90
43143;DHT22;28750;59.842;17.584;2023-03-14T04:12:36;5.90;99.90
43143;DHT22;28750;59.842;17.584;2023-03-14T04:15:03;5.90;99.90
43143;DHT22;28750;59.842;17.584;2023-03-14T04:17:31;5.80;99.90
43143;DHT22;28750;59.842;17.584;2023-03-14T04:19:57;5.90;99.90
43143;DHT22;28750;59.842;17.584;2023-03-14T04:22:24;5.90;99.90
43143;DHT22;28750;59.842;17.584;2023-03-14T04:24:51;5.80;99.90
43143;DHT22;28750;59.842;17.584;2023-03-14T04:27:18;5.80;99.90
43143;DHT22;28750;59.842;17.584;2023-03-14T04:29:45;5.70;99.90
43143;DHT22;28750;59.842;17.584;2023-03-14T04:32:12;5.70;99.90
43143;DHT22;28750;59.842;17.584;2023-03-14T04:34:39;5.70;99.90
43143;DHT22;28750;59.842;17.584;2023-03-14T04:37:05;5.70;99.90
43143;DHT22;28750;59.842;17.584;2023-03-14T04:39:32;5.50;99.90
43143;DHT22;28750;59.842;17.584;2023-03-14T04:41:59;5.60;99.90
43143;DHT22;28750;59.842;17.584;2023-03-14T04:44:26;5.50;99.90
43143;DHT22;28750;59.842;17.584;2023-03-14T04:46:53;5.60;99.90
43143;DHT22;28750;59.842;17.584;2023-03-14T04:49:20;5.60;99.90
43143;DHT22;28750;59.842;17.584;2023-03-14T04:51:47;5.40;99.90
43143;DHT22;28750;59.842;17.584;2023-03-14T04:54:16;5.50;99.90
43143;DHT22;28750;59.842;17.584;2023-03-14T04:56:43;5.40;99.90
43143;DHT22;28750;59.842;17.584;2023-03-14T04:59:10;5.40;99.90
43143;DHT22;28750;59.842;17.584;2023-03-14T05:01:37;5.20;99.90
43143;DHT22;28750;59.842;17.584;2023-03-14T05:04:04;5.20;99.90
43143;DHT22;28750;59.842;17.584;2023-03-14T05:06:31;5.20;99.90
43143;DHT22;28750;59.842;17.584;2023-03-14T05:08:58;5.20;99.90
43143;DHT22;28750;59.842;17.584;2023-03-14T05:11:25;5.20;99.90
43143;DHT22;28750;59.842;17.584;2023-03-14T05:13:52;5.10;99.90
43143;DHT22;28750;59.842;17.584;2023-03-14T05:16:19;5.00;99.90
43143;DHT22;28750;59.842;17.584;2023-03-14T05:18:46;5.10;99.90
43143;DHT22;28750;59.842;17.584;2023-03-14T05:21:13;5.00;99.90
43143;DHT22;28750;59.842;17.584;2023-03-14T05:23:40;5.10;99.90
43143;DHT22;28750;59.842;17.584;2023-03-14T05:26:06;5.00;99.90
43143;DHT22;28750;59.842;17.584;2023-03-14T05:28:33;5.10;99.90
43143;DHT22;28750;59.842;17.584;2023-03-14T05:31:00;5.00;99.90
43143;DHT22;28750;59.842;17.584;2023-03-14T05:33:27;5.00;99.90
43143;DHT22;28750;59.842;17.584;2023-03-14T05:35:54;5.00;99.90
43143;DHT22;28750;59.842;17.584;2023-03-14T05:38:21;5.00;99.90
43143;DHT22;28750;59.842;17.584;2023-03-14T05:40:48;5.00;99.90
43143;DHT22;28750;59.842;17.584;2023-03-14T05:43:15;5.00;99.90
43143;DHT22;28750;59.842;17.584;2023-03-14T05:45:42;5.00;99.90
43143;DHT22;28750;59.842;17.584;2023-03-14T05:48:10;4.90;99.90
43143;DHT22;28750;59.842;17.584;2023-03-14T05:50:37;4.90;99.90
43143;DHT22;28750;59.842;17.584;2023-03-14T05:53:04;4.90;99.90
43143;DHT22;28750;59.842;17.584;2023-03-14T05:55:31;5.00;99.90
43143;DHT22;28750;59.842;17.584;2023-03-14T05:57:58;4.90;99.90
43143;DHT22;28750;59.842;17.584;2023-03-14T06:00:25;4.90;99.90
43143;DHT22;28750;59.842;17.584;2023-03-14T06:02:52;4.90;99.90
43143;DHT22;28750;59.842;17.584;2023-03-14T06:05:19;4.90;99.90
43143;DHT22;28750;59.842;17.584;2023-03-14T06:07:45;4.90;99.90
43143;DHT22;28750;59.842;17.584;2023-03-14T06:10:12;4.90;99.90
43143;DHT22;28750;59.842;17.584;2023-03-14T06:12:39;4.80;99.90
43143;DHT22;28750;59.842;17.584;2023-03-14T06:15:07;4.80;99.90
43143;DHT22;28750;59.842;17.584;2023-03-14T06:17:34;4.80;99.90
43143;DHT22;28750;59.842;17.584;2023-03-14T06:20:01;4.80;99.90
43143;DHT22;28750;59.842;17.584;2023-03-14T06:22:28;4.80;99.90
43143;DHT22;28750;59.842;17.584;2023-03-14T06:24:55;4.70;99.90
43143;DHT22;28750;59.842;17.584;2023-03-14T06:27:21;4.70;99.90
43143;DHT22;28750;59.842;17.584;2023-03-14T06:29:48;4.70;99.90
43143;DHT22;28750;59.842;17.584;2023-03-14T06:32:15;4.70;99.90
43143;DHT22;28750;59.842;17.584;2023-03-14T06:34:44;4.80;99.90
43143;DHT22;28750;59.842;17.584;2023-03-14T06:37:10;4.70;99.90
43143;DHT22;28750;59.842;17.584;2023-03-14T06:39:37;4.70;99.90
43143;DHT22;28750;59.842;17.584;2023-03-14T06:42:05;4.80;99.90
43143;DHT22;28750;59.842;17.584;2023-03-14T06:44:32;4.80;99.90
43143;DHT22;28750;59.842;17.584;2023-03-14T06:46:59;4.80;99.90
43143;DHT22;28750;59.842;17.584;2023-03-14T06:49:26;4.70;99.90
43143;DHT22;28750;59.842;17.584;2023-03-14T06:51:53;4.70;99.90
43143;DHT22;28750;59.842;17.584;2023-03-14T06:54:20;4.50;99.90
43143;DHT22;28750;59.842;17.584;2023-03-14T06:56:47;4.40;99.90
43143;DHT22;28750;59.842;17.584;2023-03-14T06:59:13;4.30;99.90
43143;DHT22;28750;59.842;17.584;2023-03-14T07:01:40;4.30;99.90
43143;DHT22;28750;59.842;17.584;2023-03-14T07:04:08;4.40;99.90
43143;DHT22;28750;59.842;17.584;2023-03-14T07:06:36;4.30;99.90
43143;DHT22;28750;59.842;17.584;2023-03-14T07:09:05;4.30;99.90
43143;DHT22;28750;59.842;17.584;2023-03-14T07:11:32;4.30;99.90
43143;DHT22;28750;59.842;17.584;2023-03-14T07:13:58;4.30;99.90
43143;DHT22;28750;59.842;17.584;2023-03-14T07:16:25;4.40;99.90
43143;DHT22;28750;59.842;17.584;2023-03-14T07:18:57;4.40;99.90
43143;DHT22;28750;59.842;17.584;2023-03-14T07:21:24;4.50;99.90
43143;DHT22;28750;59.842;17.584;2023-03-14T07:23:50;4.70;99.90
43143;DHT22;28750;59.842;17.584;2023-03-14T07:26:18;4.40;99.90
43143;DHT22;28750;59.842;17.584;2023-03-14T07:28:45;4.10;99.90
43143;DHT22;28750;59.842;17.584;2023-03-14T07:31:12;4.20;99.90
43143;DHT22;28750;59.842;17.584;2023-03-14T07:33:39;4.20;99.90
43143;DHT22;28750;59.842;17.584;2023-03-14T07:36:06;4.30;99.90
43143;DHT22;28750;59.842;17.584;2023-03-14T07:38:33;4.20;99.90
43143;DHT22;28750;59.842;17.584;2023-03-14T07:41:01;4.30;99.90
43143;DHT22;28750;59.842;17.584;2023-03-14T07:43:28;4.20;99.90
43143;DHT22;28750;59.842;17.584;2023-03-14T07:45:55;4.10;99.90
43143;DHT22;28750;59.842;17.584;2023-03-14T07:48:22;4.00;99.90
43143;DHT22;28750;59.842;17.584;2023-03-14T07:50:53;3.90;99.90
43143;DHT22;28750;59.842;17.584;2023-03-14T07:53:20;4.00;99.90
43143;DHT22;28750;59.842;17.584;2023-03-14T07:55:48;4.00;99.90
43143;DHT22;28750;59.842;17.584;2023-03-14T07:58:17;4.20;99.90
43143;DHT22;28750;59.842;17.584;2023-03-14T08:00:44;4.40;99.90
43143;DHT22;28750;59.842;17.584;2023-03-14T08:03:11;4.60;99.90
43143;DHT22;28750;59.842;17.584;2023-03-14T08:05:38;4.70;99.90
43143;DHT22;28750;59.842;17.584;2023-03-14T08:08:05;4.60;99.90
43143;DHT22;28750;59.842;17.584;2023-03-14T08:10:32;4.70;99.90
43143;DHT22;28750;59.842;17.584;2023-03-14T08:13:00;4.90;99.90
43143;DHT22;28750;59.842;17.584;2023-03-14T08:15:29;4.60;99.90
43143;DHT22;28750;59.842;17.584;2023-03-14T08:17:56;4.40;99.90
43143;DHT22;28750;59.842;17.584;2023-03-14T08:20:26;4.50;99.90
43143;DHT22;28750;59.842;17.584;2023-03-14T08:22:56;4.50;99.90
43143;DHT22;28750;59.842;17.584;2023-03-14T08:25:25;4.30;99.90
43143;DHT22;28750;59.842;17.584;2023-03-14T08:27:52;4.20;99.90
43143;DHT22;28750;59.842;17.584;2023-03-14T08:30:20;4.00;99.90
43143;DHT22;28750;59.842;17.584;2023-03-14T08:32:48;4.10;99.90
43143;DHT22;28750;59.842;17.584;2023-03-14T08:35:15;4.20;99.90
43143;DHT22;28750;59.842;17.584;2023-03-14T08:37:42;4.10;99.90
43143;DHT22;28750;59.842;17.584;2023-03-14T08:40:10;4.00;99.90
43143;DHT22;28750;59.842;17.584;2023-03-14T08:42:39;4.10;99.90
43143;DHT22;28750;59.842;17.584;2023-03-14T08:45:08;4.00;99.90
43143;DHT22;28750;59.842;17.584;2023-03-14T08:47:35;4.10;99.90
43143;DHT22;28750;59.842;17.584;2023-03-14T08:50:03;4.20;99.90
43143;DHT22;28750;59.842;17.584;2023-03-14T08:52:31;4.30;99.90
43143;DHT22;28750;59.842;17.584;2023-03-14T08:54:59;4.20;99.90
43143;DHT22;28750;59.842;17.584;2023-03-14T08:57:26;4.20;99.90
43143;DHT22;28750;59.842;17.584;2023-03-14T08:59:54;4.20;99.90
43143;DHT22;28750;59.842;17.584;2023-03-14T09:02:23;4.20;99.90
43143;DHT22;28750;59.842;17.584;2023-03-14T09:04:50;4.40;99.90
43143;DHT22;28750;59.842;17.584;2023-03-14T09:07:18;4.40;99.90
43143;DHT22;28750;59.842;17.584;2023-03-14T09:09:45;4.40;99.90
43143;DHT22;28750;59.842;17.584;2023-03-14T09:12:12;4.80;99.90
43143;DHT22;28750;59.842;17.584;2023-03-14T09:14:39;4.90;99.90
43143;DHT22;28750;59.842;17.584;2023-03-14T09:17:07;4.80;99.90
43143;DHT22;28750;59.842;17.584;2023-03-14T09:19:34;4.90;99.90
43143;DHT22;28750;59.842;17.584;2023-03-14T09:22:01;4.80;99.90
43143;DHT22;28750;59.842;17.584;2023-03-14T09:24:29;4.90;99.90
43143;DHT22;28750;59.842;17.584;2023-03-14T09:26:56;5.00;99.90
43143;DHT22;28750;59.842;17.584;2023-03-14T09:29:23;5.00;99.90
43143;DHT22;28750;59.842;17.584;2023-03-14T09:31:50;5.00;99.90
43143;DHT22;28750;59.842;17.584;2023-03-14T09:34:17;5.20;99.90
43143;DHT22;28750;59.842;17.584;2023-03-14T09:36:45;5.30;99.90
43143;DHT22;28750;59.842;17.584;2023-03-14T09:39:12;5.00;99.90
43143;DHT22;28750;59.842;17.584;2023-03-14T09:41:46;5.00;99.90
43143;DHT22;28750;59.842;17.584;2023-03-14T09:44:29;4.80;99.90
43143;DHT22;28750;59.842;17.584;2023-03-14T09:47:06;4.80;99.90
43143;DHT22;28750;59.842;17.584;2023-03-14T09:49:35;4.70;99.90
43143;DHT22;28750;59.842;17.584;2023-03-14T09:52:32;4.80;99.90
43143;DHT22;28750;59.842;17.584;2023-03-14T09:55:03;4.90;99.90
43143;DHT22;28750;59.842;17.584;2023-03-14T09:57:32;4.70;99.90
43143;DHT22;28750;59.842;17.584;2023-03-14T10:00:19;4.50;99.90
43143;DHT22;28750;59.842;17.584;2023-03-14T10:02:53;4.30;99.90
43143;DHT22;28750;59.842;17.584;2023-03-14T10:05:23;4.30;99.90
43143;DHT22;28750;59.842;17.584;2023-03-14T10:07:51;4.10;99.90
43143;DHT22;28750;59.842;17.584;2023-03-14T10:10:23;4.10;99.90
43143;DHT22;28750;59.842;17.584;2023-03-14T10:13:20;4.10;99.90
43143;DHT22;28750;59.842;17.584;2023-03-14T10:16:02;4.00;99.90
43143;DHT22;28750;59.842;17.584;2023-03-14T10:18:32;4.10;99.90
43143;DHT22;28750;59.842;17.584;2023-03-14T10:21:25;4.00;99.90
43143;DHT22;28750;59.842;17.584;2023-03-14T10:23:53;4.00;99.90
43143;DHT22;28750;59.842;17.584;2023-03-14T10:26:28;4.10;99.90
43143;DHT22;28750;59.842;17.584;2023-03-14T10:29:07;4.00;99.90
43143;DHT22;28750;59.842;17.584;2023-03-14T10:31:53;4.20;99.90
43143;DHT22;28750;59.842;17.584;2023-03-14T10:34:29;4.10;99.90
43143;DHT22;28750;59.842;17.584;2023-03-14T10:39:49;4.10;99.90
43143;DHT22;28750;59.842;17.584;2023-03-14T10:42:24;4.20;99.90
43143;DHT22;28750;59.842;17.584;2023-03-14T10:45:00;4.20;99.90
43143;DHT22;28750;59.842;17.584;2023-03-14T10:47:28;4.30;99.90
43143;DHT22;28750;59.842;17.584;2023-03-14T10:49:57;4.40;99.90
43143;DHT22;28750;59.842;17.584;2023-03-14T10:52:28;4.30;99.90
43143;DHT22;28750;59.842;17.584;2023-03-14T10:55:00;4.30;99.90
43143;DHT22;28750;59.842;17.584;2023-03-14T10:57:28;4.20;99.90
43143;DHT22;28750;59.842;17.584;2023-03-14T10:59:56;4.30;99.90
43143;DHT22;28750;59.842;17.584;2023-03-14T11:03:11;4.20;99.90
43143;DHT22;28750;59.842;17.584;2023-03-14T11:08:27;4.30;99.90
43143;DHT22;28750;59.842;17.584;2023-03-14T11:11:27;4.20;99.90
43143;DHT22;28750;59.842;17.584;2023-03-14T11:22:21;4.00;99.90
43143;DHT22;28750;59.842;17.584;2023-03-14T11:25:00;4.00;99.90
43143;DHT22;28750;59.842;17.584;2023-03-14T11:30:19;4.00;99.90
43143;DHT22;28750;59.842;17.584;2023-03-14T11:33:14;4.00;99.90
43143;DHT22;28750;59.842;17.584;2023-03-14T11:38:36;4.00;99.90
43143;DHT22;28750;59.842;17.584;2023-03-14T11:41:08;4.10;99.90
43143;DHT22;28750;59.842;17.584;2023-03-14T11:43:39;4.10;99.90
43143;DHT22;28750;59.842;17.584;2023-03-14T11:46:30;4.10;99.90
43143;DHT22;28750;59.842;17.584;2023-03-14T11:51:41;3.70;99.90
43143;DHT22;28750;59.842;17.584;2023-03-14T11:54:26;3.50;99.90
43143;DHT22;28750;59.842;17.584;2023-03-14T11:57:10;3.30;99.90
43143;DHT22;28750;59.842;17.584;2023-03-14T11:59:56;3.20;99.90
43143;DHT22;28750;59.842;17.584;2023-03-14T12:10:40;3.40;99.90
43143;DHT22;28750;59.842;17.584;2023-03-14T12:13:11;3.40;99.90
43143;DHT22;28750;59.842;17.584;2023-03-14T12:15:41;3.40;99.90
43143;DHT22;28750;59.842;17.584;2023-03-14T12:18:31;3.20;99.90
43143;DHT22;28750;59.842;17.584;2023-03-14T12:21:01;3.20;99.90
43143;DHT22;28750;59.842;17.584;2023-03-14T12:23:43;3.30;99.90
43143;DHT22;28750;59.842;17.584;2023-03-14T12:28:39;3.30;99.90
43143;DHT22;28750;59.842;17.584;2023-03-14T12:45:31;3.60;99.90
43143;DHT22;28750;59.842;17.584;2023-03-14T12:51:35;3.60;99.90
43143;DHT22;28750;59.842;17.584;2023-03-14T12:53:57;3.60;99.90
43143;DHT22;28750;59.842;17.584;2023-03-14T13:02:26;3.60;99.90
43143;DHT22;28750;59.842;17.584;2023-03-14T13:05:01;3.60;99.90
43143;DHT22;28750;59.842;17.584;2023-03-14T13:10:39;3.50;99.90
43143;DHT22;28750;59.842;17.584;2023-03-14T13:13:25;3.50;99.90
43143;DHT22;28750;59.842;17.584;2023-03-14T13:15:57;3.60;99.90
43143;DHT22;28750;59.842;17.584;2023-03-14T13:18:43;3.60;99.90
43143;DHT22;28750;59.842;17.584;2023-03-14T13:21:26;3.50;99.90
43143;DHT22;28750;59.842;17.584;2023-03-14T13:24:00;3.50;99.90
43143;DHT22;28750;59.842;17.584;2023-03-14T13:26:43;3.50;99.90
43143;DHT22;28750;59.842;17.584;2023-03-14T13:29:27;3.50;99.90
43143;DHT22;28750;59.842;17.584;2023-03-14T13:31:58;3.50;99.90
43143;DHT22;28750;59.842;17.584;2023-03-14T13:34:30;3.40;99.90
43143;DHT22;28750;59.842;17.584;2023-03-14T13:36:58;3.40;99.90
43143;DHT22;28750;59.842;17.584;2023-03-14T13:39:28;3.50;99.90
43143;DHT22;28750;59.842;17.584;2023-03-14T13:41:59;3.50;99.90
43143;DHT22;28750;59.842;17.584;2023-03-14T13:44:32;3.60;99.90
43143;DHT22;28750;59.842;17.584;2023-03-14T13:47:01;3.60;99.90
43143;DHT22;28750;59.842;17.584;2023-03-14T13:49:30;3.50;99.90
43143;DHT22;28750;59.842;17.584;2023-03-14T13:52:01;3.50;99.90
43143;DHT22;28750;59.842;17.584;2023-03-14T13:54:31;3.50;99.90
43143;DHT22;28750;59.842;17.584;2023-03-14T13:57:05;3.40;99.90
43143;DHT22;28750;59.842;17.584;2023-03-14T13:59:34;3.30;99.90
43143;DHT22;28750;59.842;17.584;2023-03-14T14:02:06;3.30;99.90
43143;DHT22;28750;59.842;17.584;2023-03-14T14:04:38;3.30;99.90
43143;DHT22;28750;59.842;17.584;2023-03-14T14:07:10;3.30;99.90
43143;DHT22;28750;59.842;17.584;2023-03-14T14:09:50;3.20;99.90
43143;DHT22;28750;59.842;17.584;2023-03-14T14:17:39;3.30;99.90
43143;DHT22;28750;59.842;17.584;2023-03-14T14:20:18;3.30;99.90
43143;DHT22;28750;59.842;17.584;2023-03-14T14:22:46;3.20;99.90
43143;DHT22;28750;59.842;17.584;2023-03-14T14:25:14;3.20;99.90
43143;DHT22;28750;59.842;17.584;2023-03-14T14:27:46;3.20;99.90
43143;DHT22;28750;59.842;17.584;2023-03-14T14:32:48;3.10;99.90
43143;DHT22;28750;59.842;17.584;2023-03-14T14:35:24;3.10;99.90
43143;DHT22;28750;59.842;17.584;2023-03-14T14:37:52;3.00;99.90
43143;DHT22;28750;59.842;17.584;2023-03-14T14:40:22;3.00;99.90
43143;DHT22;28750;59.842;17.584;2023-03-14T14:42:50;3.00;99.90
43143;DHT22;28750;59.842;17.584;2023-03-14T14:45:20;2.90;99.90
43143;DHT22;28750;59.842;17.584;2023-03-14T14:48:05;2.90;99.90
43143;DHT22;28750;59.842;17.584;2023-03-14T14:50:58;2.90;99.90
43143;DHT22;28750;59.842;17.584;2023-03-14T14:53:37;2.80;99.90
43143;DHT22;28750;59.842;17.584;2023-03-14T14:58:43;2.50;99.90
43143;DHT22;28750;59.842;17.584;2023-03-14T15:01:15;2.50;99.90
43143;DHT22;28750;59.842;17.584;2023-03-14T15:03:44;2.40;99.90
43143;DHT22;28750;59.842;17.584;2023-03-14T15:06:13;2.50;99.90
43143;DHT22;28750;59.842;17.584;2023-03-14T15:08:43;2.50;99.90
43143;DHT22;28750;59.842;17.584;2023-03-14T15:11:22;2.50;99.90
43143;DHT22;28750;59.842;17.584;2023-03-14T15:13:53;2.60;99.90
43143;DHT22;28750;59.842;17.584;2023-03-14T15:16:31;2.60;99.90
43143;DHT22;28750;59.842;17.584;2023-03-14T15:19:25;2.50;99.90
43143;DHT22;28750;59.842;17.584;2023-03-14T15:21:55;2.40;99.90
43143;DHT22;28750;59.842;17.584;2023-03-14T15:24:23;2.30;99.90
43143;DHT22;28750;59.842;17.584;2023-03-14T15:26:51;2.10;99.90
43143;DHT22;28750;59.842;17.584;2023-03-14T15:29:19;2.10;99.90
43143;DHT22;28750;59.842;17.584;2023-03-14T15:31:48;1.90;99.90
43143;DHT22;28750;59.842;17.584;2023-03-14T15:34:18;2.00;99.90
43143;DHT22;28750;59.842;17.584;2023-03-14T15:36:51;2.10;99.90
43143;DHT22;28750;59.842;17.584;2023-03-14T15:39:20;2.10;99.90
43143;DHT22;28750;59.842;17.584;2023-03-14T15:41:48;1.90;99.90
43143;DHT22;28750;59.842;17.584;2023-03-14T15:44:18;2.10;99.90
43143;DHT22;28750;59.842;17.584;2023-03-14T15:46:46;2.00;99.90
43143;DHT22;28750;59.842;17.584;2023-03-14T15:49:18;2.10;99.90
43143;DHT22;28750;59.842;17.584;2023-03-14T15:51:49;2.00;99.90
43143;DHT22;28750;59.842;17.584;2023-03-14T15:54:17;1.90;99.90
43143;DHT22;28750;59.842;17.584;2023-03-14T15:56:45;1.90;99.90
43143;DHT22;28750;59.842;17.584;2023-03-14T15:59:13;2.00;99.90
43143;DHT22;28750;59.842;17.584;2023-03-14T16:01:43;2.10;99.90
43143;DHT22;28750;59.842;17.584;2023-03-14T16:04:14;2.00;99.90
43143;DHT22;28750;59.842;17.584;2023-03-14T16:06:44;1.90;99.90
43143;DHT22;28750;59.842;17.584;2023-03-14T16:09:12;2.00;99.90
43143;DHT22;28750;59.842;17.584;2023-03-14T16:11:40;2.00;99.90
43143;DHT22;28750;59.842;17.584;2023-03-14T16:14:12;2.00;99.90
43143;DHT22;28750;59.842;17.584;2023-03-14T16:16:41;1.90;99.90
43143;DHT22;28750;59.842;17.584;2023-03-14T16:19:09;1.80;99.90
43143;DHT22;28750;59.842;17.584;2023-03-14T16:21:37;1.80;99.90
43143;DHT22;28750;59.842;17.584;2023-03-14T16:24:07;1.90;99.90
43143;DHT22;28750;59.842;17.584;2023-03-14T16:26:42;1.90;99.90
43143;DHT22;28750;59.842;17.584;2023-03-14T16:29:15;1.90;99.90
43143;DHT22;28750;59.842;17.584;2023-03-14T16:31:50;1.90;99.90
43143;DHT22;28750;59.842;17.584;2023-03-14T16:34:24;1.90;99.90
43143;DHT22;28750;59.842;17.584;2023-03-14T16:37:00;1.90;99.90
43143;DHT22;28750;59.842;17.584;2023-03-14T16:39:35;1.90;99.90
43143;DHT22;28750;59.842;17.584;2023-03-14T16:42:06;1.90;99.90
43143;DHT22;28750;59.842;17.584;2023-03-14T16:44:39;1.80;99.90
43143;DHT22;28750;59.842;17.584;2023-03-14T16:47:14;1.80;99.90
43143;DHT22;28750;59.842;17.584;2023-03-14T16:49:46;1.90;99.90
43143;DHT22;28750;59.842;17.584;2023-03-14T16:52:18;1.90;99.90
43143;DHT22;28750;59.842;17.584;2023-03-14T16:54:50;1.90;99.90
43143;DHT22;28750;59.842;17.584;2023-03-14T16:57:24;1.90;99.90
43143;DHT22;28750;59.842;17.584;2023-03-14T16:59:54;1.90;99.90
43143;DHT22;28750;59.842;17.584;2023-03-14T17:02:25;1.80;99.90
43143;DHT22;28750;59.842;17.584;2023-03-14T17:04:56;1.70;99.90
43143;DHT22;28750;59.842;17.584;2023-03-14T17:07:30;1.80;99.90